aviador You're here:

UKKK Decoded Metar

KIEV in UKRAINE
Report Time2018-06-23 13:30:00
UTC Time2018-06-23 13:46:33
Flight Rules ifr IFR
Wind300° at 10 kt
W.Decomp.*RWY 26: 8.2 kt HW 5.7 kt RCW
W.Rank300° ranks 6
Current wind is above 300° avg. (9.7)
Visibility5000 m
Phenomena:Mist
Clouds:Overcast 006 Hf
Ceiling600 ft
Temp13°C (ISA -1)
Dew Point13°C (100% RH)
AAT10.3°C
QNH1008 hPa
Density Alt860 ft
Elevation587 ft
Report Wrong Elevation
Raw Report
METAR UKKK 231330Z 30005MPS 5000 BR OVC006 13/13 Q1008 R26/290156 TEMPO
2000 BR BKN004=

Extra information for UKKK:More info

Metar Taf Metar & Taf Last 4 Metars F.Rules Stats Wind Profile Meteogram Temp Stats Airport Information Weather charts Add Link Nearby VenuesMetar ALERT Operation Metar Decoded Social comments